Time,TemperatureF,DewpointF,PressureIn,WindDirection,WindDirectionDegrees,WindSpeedMPH,WindSpeedGustMPH,Humidity,HourlyPrecipIn,Conditions,Clouds,dailyrainin,SoftwareType,DateUTC
2013-01-09 00:04:00,38.1,21.6,29.97,SW,225,3.8,8.1,51,0.00,CLR,FEW,0.00,WeatherDisplay:10.37,2013-01-09 06:04:00,
2013-01-09 00:10:00,37.9,21.4,29.98,SW,225,1.6,5.8,51,0.00,CLR,FEW,0.00,WeatherDisplay:10.37,2013-01-09 06:10:00,
2013-01-09 00:16:00,37.8,27.8,29.98,SW,225,4.5,7.6,67,0.00,CLR,FEW,0.00,WeatherDisplay:10.37,2013-01-09 06:16:00,
2013-01-09 00:21:00,37.8,21.2,29.98,West,270,3.1,8.1,51,0.00,CLR,FEW,0.00,WeatherDisplay:10.37,2013-01-09 06:21:00,
2013-01-09 00:27:00,37.8,21.2,29.98,SW,225,3.1,6.9,51,0.00,CLR,FEW,0.00,WeatherDisplay:10.37,2013-01-09 06:27:00,
2013-01-09 00:32:00,37.6,21.1,29.98,South,180,2.2,5.8,51,0.00,CLR,FEW,0.00,WeatherDisplay:10.37,2013-01-09 06:32:00,
2013-01-09 00:38:00,37.4,20.9,29.99,SW,225,1.6,3.5,51,0.00,CLR,FEW,0.00,WeatherDisplay:10.37,2013-01-09 06:38:00,
2013-01-09 00:44:00,37.4,20.9,29.99,SW,225,1.6,4.6,51,0.00,CLR,FEW,0.00,WeatherDisplay:10.37,2013-01-09 06:44:00,
2013-01-09 00:49:00,37.4,27.8,29.99,South,180,1.6,3.8,68,0.00,CLR,FEW,0.00,WeatherDisplay:10.37,2013-01-09 06:49:00,
2013-01-09 00:55:00,37.4,20.9,29.99,West,270,0.7,5.8,51,0.00,CLR,FEW,0.00,WeatherDisplay:10.37,2013-01-09 06:55:00,
2013-01-09 01:00:00,37.6,21.1,30.00,SW,225,2.2,3.5,51,0.00,CLR,FEW,0.00,WeatherDisplay:10.37,2013-01-09 07:00:00,
2013-01-09 01:06:00,38.1,22.9,30.00,WSW,248,1.6,8.1,54,0.00,CLR,FEW,0.00,WeatherDisplay:10.37,2013-01-09 07:06:00,
2013-01-09 01:12:00,38.8,29.2,30.00,SW,225,3.8,6.0,68,0.00,CLR,FEW,0.00,WeatherDisplay:10.37,2013-01-09 07:12:00,
2013-01-09 01:17:00,39.6,24.3,30.01,SW,225,4.5,8.1,54,0.00,CLR,FEW,0.00,WeatherDisplay:10.37,2013-01-09 07:17:00,
2013-01-09 01:23:00,40.1,24.8,30.01,West,270,2.2,6.9,54,0.00,CLR,FEW,0.00,WeatherDisplay:10.37,2013-01-09 07:23:00,
2013-01-09 01:28:00,39.7,28.9,30.01,West,270,1.6,5.8,65,0.00,CLR,FEW,0.00,WeatherDisplay:10.37,2013-01-09 07:28:00,
2013-01-09 01:34:00,39.7,24.4,30.02,SW,225,4.5,8.3,54,0.00,CLR,FEW,0.00,WeatherDisplay:10.37,2013-01-09 07:34:00,
2013-01-09 01:40:00,39.6,29.1,30.02,NW,315,1.6,3.5,66,0.00,CLR,FEW,0.00,WeatherDisplay:10.37,2013-01-09 07:40:00,
2013-01-09 01:45:00,39.4,24.1,30.02,West,270,1.6,4.6,54,0.00,CLR,FEW,0.00,WeatherDisplay:10.37,2013-01-09 07:45:00,
2013-01-09 01:51:00,39.0,23.8,30.03,West,270,2.2,5.8,54,0.00,CLR,FEW,0.00,WeatherDisplay:10.37,2013-01-09 07:51:00,
2013-01-09 01:56:00,38.8,23.6,30.03,NW,315,2.2,4.6,54,0.00,CLR,FEW,0.00,WeatherDisplay:10.37,2013-01-09 07:56:00,
2013-01-09 02:02:00,38.7,26.0,30.03,West,270,1.6,3.5,60,0.00,CLR,FEW,0.00,WeatherDisplay:10.37,2013-01-09 08:02:00,
2013-01-09 02:08:00,38.3,28.7,30.03,NW,315,3.1,3.5,68,0.00,CLR,FEW,0.00,WeatherDisplay:10.37,2013-01-09 08:08:00,
2013-01-09 02:13:00,38.1,25.4,30.03,West,270,3.8,8.1,60,0.00,CLR,FEW,0.00,WeatherDisplay:10.37,2013-01-09 08:13:00,
2013-01-09 02:19:00,37.9,25.3,30.03,West,270,1.6,4.6,60,0.00,CLR,FEW,0.00,WeatherDisplay:10.37,2013-01-09 08:19:00,
2013-01-09 02:24:00,37.6,24.9,30.04,SW,225,1.6,4.6,60,0.00,CLR,FEW,0.00,WeatherDisplay:10.37,2013-01-09 08:24:00,
2013-01-09 02:30:00,37.4,24.8,30.04,SW,225,1.6,4.6,60,0.00,CLR,FEW,0.00,WeatherDisplay:10.37,2013-01-09 08:30:00,
2013-01-09 02:36:00,37.2,28.7,30.04,West,270,2.2,4.6,71,0.00,CLR,FEW,0.00,WeatherDisplay:10.37,2013-01-09 08:36:00,
2013-01-09 02:41:00,37.0,28.5,30.04,NW,315,2.2,8.1,71,0.00,CLR,FEW,0.00,WeatherDisplay:10.37,2013-01-09 08:41:00,
2013-01-09 02:47:00,37.0,24.4,30.05,SW,225,2.2,5.8,60,0.00,CLR,FEW,0.00,WeatherDisplay:10.37,2013-01-09 08:47:00,
2013-01-09 02:52:00,36.9,24.3,30.05,SW,225,1.6,4.6,60,0.00,CLR,FEW,0.00,WeatherDisplay:10.37,2013-01-09 08:52:00,
2013-01-09 02:58:00,36.7,24.1,30.05,SW,225,2.2,5.8,60,0.00,CLR,FEW,0.00,WeatherDisplay:10.37,2013-01-09 08:58:00,
2013-01-09 03:04:00,36.3,28.2,30.05,West,270,1.6,3.5,72,0.00,CLR,FEW,0.00,WeatherDisplay:10.37,2013-01-09 09:04:00,
2013-01-09 03:09:00,36.3,28.5,30.06,SW,225,2.2,5.8,73,0.00,CLR,FEW,0.00,WeatherDisplay:10.37,2013-01-09 09:09:00,
2013-01-09 03:15:00,36.1,28.3,30.06,NW,315,0.7,3.5,73,0.00,CLR,FEW,0.00,WeatherDisplay:10.37,2013-01-09 09:15:00,
2013-01-09 03:20:00,36.0,28.1,30.06,West,270,3.1,5.8,73,0.00,CLR,FEW,0.00,WeatherDisplay:10.37,2013-01-09 09:20:00,
2013-01-09 03:26:00,36.0,28.5,30.07,SW,225,4.5,9.2,74,0.00,CLR,FEW,0.00,WeatherDisplay:10.37,2013-01-09 09:26:00,
2013-01-09 03:32:00,35.8,28.3,30.08,West,270,3.8,9.8,74,0.00,CLR,FEW,0.00,WeatherDisplay:10.37,2013-01-09 09:32:00,
2013-01-09 03:37:00,35.8,28.3,30.08,West,270,2.2,6.9,74,0.00,CLR,FEW,0.00,WeatherDisplay:10.37,2013-01-09 09:37:00,
2013-01-09 03:43:00,35.6,27.8,30.08,SW,225,2.2,6.9,73,0.00,CLR,FEW,0.00,WeatherDisplay:10.37,2013-01-09 09:43:00,
2013-01-09 03:48:00,35.6,27.8,30.08,West,270,4.5,6.9,73,0.00,CLR,FEW,0.00,WeatherDisplay:10.37,2013-01-09 09:48:00,
2013-01-09 03:54:00,35.6,27.8,30.08,West,270,4.5,5.8,73,0.00,CLR,FEW,0.00,WeatherDisplay:10.37,2013-01-09 09:54:00,
2013-01-09 04:00:00,35.6,27.8,30.08,WNW,292,1.6,3.5,73,0.00,CLR,FEW,0.00,WeatherDisplay:10.37,2013-01-09 10:00:00,
2013-01-09 04:05:00,35.6,26.4,30.08,NW,315,3.1,8.1,69,0.00,CLR,FEW,0.00,WeatherDisplay:10.37,2013-01-09 10:05:00,
2013-01-09 04:11:00,35.6,28.5,30.08,NW,315,2.2,5.8,75,0.00,CLR,FEW,0.00,WeatherDisplay:10.37,2013-01-09 10:11:00,
2013-01-09 04:16:00,35.4,26.3,30.08,West,270,0.7,4.6,69,0.00,CLR,FEW,0.00,WeatherDisplay:10.37,2013-01-09 10:16:00,
2013-01-09 04:22:00,35.4,28.3,30.08,South,180,0.7,2.3,75,0.00,CLR,FEW,0.00,WeatherDisplay:10.37,2013-01-09 10:22:00,
2013-01-09 04:28:00,35.1,27.9,30.09,SW,225,1.6,3.5,75,0.00,CLR,FEW,0.00,WeatherDisplay:10.37,2013-01-09 10:28:00,
2013-01-09 04:33:00,35.1,28.3,30.10,SW,225,2.2,4.5,76,0.00,CLR,FEW,0.00,WeatherDisplay:10.37,2013-01-09 10:33:00,
2013-01-09 04:39:00,35.1,25.9,30.10,NW,315,2.2,5.8,69,0.00,CLR,FEW,0.00,WeatherDisplay:10.37,2013-01-09 10:39:00,
2013-01-09 04:44:00,34.9,28.1,30.10,SW,225,0.7,3.5,76,0.00,CLR,FEW,0.00,WeatherDisplay:10.37,2013-01-09 10:44:00,
2013-01-09 04:50:00,34.7,25.6,30.11,North,0,2.2,5.8,69,0.00,CLR,FEW,0.00,WeatherDisplay:10.37,2013-01-09 10:50:00,
2013-01-09 04:56:00,34.9,28.1,30.11,SSW,202,2.2,5.8,76,0.00,CLR,FEW,0.00,WeatherDisplay:10.37,2013-01-09 10:56:00,
2013-01-09 05:01:00,34.9,28.1,30.11,West,270,3.1,4.6,76,0.00,CLR,FEW,0.00,WeatherDisplay:10.37,2013-01-09 11:01:00,
2013-01-09 05:07:00,34.9,27.1,30.11,SW,225,1.6,4.6,73,0.00,CLR,FEW,0.00,WeatherDisplay:10.37,2013-01-09 11:07:00,
2013-01-09 05:12:00,34.9,28.1,30.12,SW,225,0.7,5.8,76,0.00,CLR,FEW,0.00,WeatherDisplay:10.37,2013-01-09 11:12:00,
2013-01-09 05:18:00,34.7,28.2,30.12,West,270,1.6,3.8,77,0.00,CLR,FEW,0.00,WeatherDisplay:10.37,2013-01-09 11:18:00,
2013-01-09 05:24:00,34.7,27.9,30.12,West,270,1.6,6.0,76,0.00,CLR,FEW,0.00,WeatherDisplay:10.37,2013-01-09 11:24:00,
2013-01-09 05:29:00,34.7,26.9,30.13,North,0,0.7,3.5,73,0.00,CLR,FEW,0.00,WeatherDisplay:10.37,2013-01-09 11:29:00,
2013-01-09 05:35:00,34.5,26.8,30.13,WSW,248,1.6,4.6,73,0.00,CLR,FEW,0.00,WeatherDisplay:10.37,2013-01-09 11:35:00,
2013-01-09 05:40:00,34.7,28.2,30.13,SW,225,2.2,8.1,77,0.00,CLR,FEW,0.00,WeatherDisplay:10.37,2013-01-09 11:40:00,
2013-01-09 05:46:00,34.7,26.9,30.14,West,270,1.6,3.5,73,0.00,CLR,FEW,0.00,WeatherDisplay:10.37,2013-01-09 11:46:00,
2013-01-09 05:52:00,34.7,26.9,30.13,West,270,1.6,5.8,73,0.00,CLR,FEW,0.00,WeatherDisplay:10.37,2013-01-09 11:52:00,
2013-01-09 05:57:00,34.3,26.6,30.13,West,270,2.2,5.8,73,0.00,CLR,FEW,0.00,WeatherDisplay:10.37,2013-01-09 11:57:00,
2013-01-09 06:03:00,34.5,25.7,30.14,West,270,2.2,4.6,70,0.00,CLR,FEW,0.00,WeatherDisplay:10.37,2013-01-09 12:03:00,
2013-01-09 06:08:00,34.5,28.1,30.14,West,270,2.2,4.5,77,0.00,CLR,FEW,0.00,WeatherDisplay:10.37,2013-01-09 12:08:00,
2013-01-09 06:14:00,34.5,25.7,30.15,NW,315,2.2,5.8,70,0.00,CLR,FEW,0.00,WeatherDisplay:10.37,2013-01-09 12:14:00,
2013-01-09 06:20:00,34.5,25.7,30.15,South,180,1.6,4.6,70,0.00,CLR,FEW,0.00,WeatherDisplay:10.37,2013-01-09 12:20:00,
2013-01-09 06:25:00,34.5,25.7,30.15,West,270,1.6,3.5,70,0.00,CLR,FEW,0.00,WeatherDisplay:10.37,2013-01-09 12:25:00,
2013-01-09 06:31:00,34.3,27.9,30.15,West,270,3.1,4.6,77,0.00,CLR,FEW,0.00,WeatherDisplay:10.37,2013-01-09 12:31:00,
2013-01-09 06:36:00,34.3,27.9,30.16,South,180,0.7,3.5,77,0.00,CLR,FEW,0.00,WeatherDisplay:10.37,2013-01-09 12:36:00,
2013-01-09 06:42:00,34.3,25.6,30.16,West,270,2.2,4.6,70,0.00,CLR,FEW,0.00,WeatherDisplay:10.37,2013-01-09 12:42:00,
2013-01-09 06:48:00,34.3,27.9,30.16,SW,225,1.6,4.6,77,0.00,CLR,FEW,0.00,WeatherDisplay:10.37,2013-01-09 12:48:00,
2013-01-09 06:53:00,34.3,25.6,30.16,NW,315,0.0,4.6,70,0.00,CLR,FEW,0.00,WeatherDisplay:10.37,2013-01-09 12:53:00,
2013-01-09 06:59:00,34.0,27.5,30.16,West,270,1.6,2.3,77,0.00,CLR,FEW,0.00,WeatherDisplay:10.37,2013-01-09 12:59:00,
2013-01-09 07:04:00,34.0,27.5,30.17,South,180,2.2,4.5,77,0.00,CLR,FEW,0.00,WeatherDisplay:10.37,2013-01-09 13:04:00,
2013-01-09 07:10:00,33.8,25.0,30.17,SW,225,1.6,3.5,70,0.00,CLR,FEW,0.00,WeatherDisplay:10.37,2013-01-09 13:10:00,
2013-01-09 07:16:00,33.8,25.0,30.16,NW,315,0.7,4.6,70,0.00,CLR,FEW,0.00,WeatherDisplay:10.37,2013-01-09 13:16:00,
2013-01-09 07:21:00,33.8,27.7,30.16,SW,225,0.7,3.5,78,0.00,CLR,FEW,0.00,WeatherDisplay:10.37,2013-01-09 13:21:00,
2013-01-09 07:27:00,33.8,27.7,30.16,West,270,0.7,4.6,78,0.00,CLR,FEW,0.00,WeatherDisplay:10.37,2013-01-09 13:27:00,
2013-01-09 07:32:00,33.8,25.0,30.17,SW,225,3.1,4.6,70,0.00,CLR,FEW,0.00,WeatherDisplay:10.37,2013-01-09 13:32:00,
2013-01-09 07:38:00,33.8,25.0,30.17,NW,315,0.7,3.5,70,0.00,CLR,FEW,0.00,WeatherDisplay:10.37,2013-01-09 13:38:00,
2013-01-09 07:44:00,33.8,27.7,30.17,West,270,2.2,3.8,78,0.00,CLR,FEW,0.00,WeatherDisplay:10.37,2013-01-09 13:44:00,
2013-01-09 07:49:00,33.8,25.0,30.18,SW,225,0.0,3.5,70,0.00,CLR,FEW,0.00,WeatherDisplay:10.37,2013-01-09 13:49:00,
2013-01-09 07:55:00,34.2,28.0,30.18,West,270,1.6,1.6,78,0.00,CLR,FEW,0.00,WeatherDisplay:10.37,2013-01-09 13:55:00,
2013-01-09 08:00:00,34.5,28.1,30.19,West,270,0.7,4.6,77,0.00,CLR,FEW,0.00,WeatherDisplay:10.37,2013-01-09 14:00:00,
2013-01-09 08:06:00,34.7,26.9,30.19,SW,225,0.7,2.3,73,0.00,CLR,FEW,0.00,WeatherDisplay:10.37,2013-01-09 14:06:00,
2013-01-09 08:12:00,34.9,27.1,30.21,SW,225,2.2,5.8,73,0.00,CLR,FEW,0.00,WeatherDisplay:10.37,2013-01-09 14:12:00,
2013-01-09 08:17:00,35.1,28.3,30.21,SW,225,2.2,4.5,76,0.00,CLR,FEW,0.00,WeatherDisplay:10.37,2013-01-09 14:17:00,
2013-01-09 08:23:00,35.6,28.5,30.22,SW,225,2.2,4.5,75,0.00,CLR,FEW,0.00,WeatherDisplay:10.37,2013-01-09 14:23:00,
2013-01-09 08:28:00,36.0,28.5,30.22,SW,225,4.5,8.3,74,0.00,CLR,FEW,0.00,WeatherDisplay:10.37,2013-01-09 14:28:00,
2013-01-09 08:34:00,36.9,29.0,30.22,West,270,0.7,5.8,73,0.00,CLR,FEW,0.00,WeatherDisplay:10.37,2013-01-09 14:34:00,
2013-01-09 08:40:00,37.8,28.9,30.22,SW,225,2.2,4.5,70,0.00,CLR,FEW,0.00,WeatherDisplay:10.37,2013-01-09 14:40:00,
2013-01-09 08:45:00,38.3,30.4,30.22,West,270,3.8,8.1,73,0.00,CLR,FEW,0.00,WeatherDisplay:10.37,2013-01-09 14:45:00,
2013-01-09 08:51:00,38.5,30.6,30.23,South,180,1.6,4.6,73,0.00,CLR,FEW,0.00,WeatherDisplay:10.37,2013-01-09 14:51:00,
2013-01-09 08:56:00,38.8,30.9,30.23,NW,315,0.7,5.8,73,0.00,CLR,FEW,0.00,WeatherDisplay:10.37,2013-01-09 14:56:00,
2013-01-09 09:02:00,39.6,30.6,30.23,NW,315,1.6,4.6,70,0.00,CLR,FEW,0.00,WeatherDisplay:10.37,2013-01-09 15:02:00,
2013-01-09 09:08:00,39.7,28.5,30.24,South,180,3.1,6.0,64,0.00,CLR,FEW,0.00,WeatherDisplay:10.37,2013-01-09 15:08:00,
2013-01-09 09:13:00,40.3,29.4,30.24,SW,225,1.6,3.8,65,0.00,CLR,FEW,0.00,WeatherDisplay:10.37,2013-01-09 15:13:00,
2013-01-09 09:19:00,41.0,29.7,30.24,SW,225,0.7,2.3,64,0.00,CLR,FEW,0.00,WeatherDisplay:10.37,2013-01-09 15:19:00,
2013-01-09 09:24:00,41.5,32.5,30.25,SW,225,1.6,3.5,70,0.00,CLR,FEW,0.00,WeatherDisplay:10.37,2013-01-09 15:24:00,
2013-01-09 09:30:00,42.3,33.2,30.25,SW,225,0.7,3.5,70,0.00,CLR,FEW,0.00,WeatherDisplay:10.37,2013-01-09 15:30:00,
2013-01-09 09:36:00,43.0,33.9,30.25,SW,225,0.7,2.3,70,0.00,CLR,FEW,0.00,WeatherDisplay:10.37,2013-01-09 15:36:00,
2013-01-09 09:41:00,42.8,33.7,30.25,SW,225,2.2,3.5,70,0.00,CLR,FEW,0.00,WeatherDisplay:10.37,2013-01-09 15:41:00,
2013-01-09 09:47:00,42.8,29.5,30.25,West,270,1.6,3.8,59,0.00,CLR,FEW,0.00,WeatherDisplay:10.37,2013-01-09 15:47:00,
2013-01-09 09:52:00,42.4,33.3,30.25,East,90,3.8,6.9,70,0.00,CLR,FEW,0.00,WeatherDisplay:10.37,2013-01-09 15:52:00,
2013-01-09 09:58:00,42.4,29.5,30.27,SW,225,2.2,8.1,60,0.00,CLR,FEW,0.00,WeatherDisplay:10.37,2013-01-09 15:58:00,
2013-01-09 10:04:00,42.6,28.9,30.27,South,180,3.8,8.1,58,0.00,CLR,FEW,0.00,WeatherDisplay:10.37,2013-01-09 16:04:00,
2013-01-09 10:09:00,42.4,30.7,30.28,SW,225,5.4,8.1,63,0.00,CLR,FEW,0.00,WeatherDisplay:10.37,2013-01-09 16:09:00,
2013-01-09 10:15:00,43.5,29.3,30.29,SW,225,3.8,7.6,57,0.00,CLR,FEW,0.00,WeatherDisplay:10.37,2013-01-09 16:15:00,
2013-01-09 10:20:00,44.6,29.4,30.29,SW,225,6.0,8.3,55,0.00,CLR,FEW,0.00,WeatherDisplay:10.37,2013-01-09 16:20:00,
2013-01-09 10:26:00,45.3,33.5,30.29,South,180,2.2,4.6,63,0.00,CLR,FEW,0.00,WeatherDisplay:10.37,2013-01-09 16:26:00,
2013-01-09 10:32:00,44.8,29.6,30.30,SW,225,0.0,6.9,55,0.00,CLR,FEW,0.00,WeatherDisplay:10.37,2013-01-09 16:32:00,
2013-01-09 10:37:00,45.5,33.6,30.30,SW,225,3.1,4.6,63,0.00,CLR,FEW,0.00,WeatherDisplay:10.37,2013-01-09 16:37:00,
2013-01-09 10:43:00,45.7,29.5,30.30,SW,225,0.7,4.5,53,0.00,CLR,FEW,0.00,WeatherDisplay:10.37,2013-01-09 16:43:00,
2013-01-09 10:48:00,44.6,32.8,30.30,SW,225,3.1,6.9,63,0.00,CLR,FEW,0.00,WeatherDisplay:10.37,2013-01-09 16:48:00,
2013-01-09 10:54:00,44.8,32.9,30.30,SW,225,1.6,6.9,63,0.00,CLR,FEW,0.00,WeatherDisplay:10.37,2013-01-09 16:54:00,
2013-01-09 11:00:00,45.3,28.2,30.30,SSW,202,2.2,6.9,51,0.00,CLR,FEW,0.00,WeatherDisplay:10.37,2013-01-09 17:00:00,
2013-01-09 11:05:00,45.5,27.9,30.30,South,180,2.2,10.4,50,0.00,CLR,FEW,0.00,WeatherDisplay:10.37,2013-01-09 17:05:00,
2013-01-09 11:11:00,45.5,26.9,30.30,West,270,5.4,10.4,48,0.00,CLR,FEW,0.00,WeatherDisplay:10.37,2013-01-09 17:11:00,
2013-01-09 11:16:00,45.7,27.1,30.31,West,270,5.4,10.4,48,0.00,CLR,FEW,0.00,WeatherDisplay:10.37,2013-01-09 17:16:00,
2013-01-09 11:22:00,45.7,33.8,30.31,SW,225,3.8,6.9,63,0.00,CLR,FEW,0.00,WeatherDisplay:10.37,2013-01-09 17:22:00,
2013-01-09 11:28:00,46.0,26.9,30.30,SSW,202,6.0,9.2,47,0.00,CLR,FEW,0.00,WeatherDisplay:10.37,2013-01-09 17:28:00,
2013-01-09 11:33:00,45.9,34.0,30.30,SW,225,3.8,9.2,63,0.00,CLR,FEW,0.00,WeatherDisplay:10.37,2013-01-09 17:33:00,
2013-01-09 11:39:00,45.7,33.8,30.30,West,270,2.2,5.8,63,0.00,CLR,FEW,0.00,WeatherDisplay:10.37,2013-01-09 17:39:00,
2013-01-09 11:44:00,45.9,34.0,30.31,NW,315,3.8,10.4,63,0.00,CLR,FEW,0.00,WeatherDisplay:10.37,2013-01-09 17:44:00,
2013-01-09 11:50:00,46.0,26.4,30.30,SSW,202,2.2,9.2,46,0.00,CLR,FEW,0.00,WeatherDisplay:10.37,2013-01-09 17:50:00,
2013-01-09 11:56:00,46.2,26.0,30.30,West,270,3.8,6.9,45,0.00,CLR,FEW,0.00,WeatherDisplay:10.37,2013-01-09 17:56:00,
2013-01-09 12:01:00,45.9,26.7,30.30,NW,315,3.1,6.9,47,0.00,CLR,FEW,0.00,WeatherDisplay:10.37,2013-01-09 18:01:00,
2013-01-09 12:07:00,45.7,30.4,30.30,NW,315,6.0,9.2,55,0.00,CLR,FEW,0.00,WeatherDisplay:10.37,2013-01-09 18:07:00,
2013-01-09 12:12:00,45.5,30.3,30.30,NW,315,3.1,9.2,55,0.00,CLR,FEW,0.00,WeatherDisplay:10.37,2013-01-09 18:12:00,
2013-01-09 12:18:00,45.5,30.3,30.30,West,270,5.4,8.1,55,0.00,CLR,FEW,0.00,WeatherDisplay:10.37,2013-01-09 18:18:00,
2013-01-09 12:24:00,45.1,29.9,30.30,West,270,6.0,10.4,55,0.00,CLR,FEW,0.00,WeatherDisplay:10.37,2013-01-09 18:24:00,
2013-01-09 12:29:00,45.0,29.8,30.30,NW,315,6.9,10.7,55,0.00,CLR,FEW,0.00,WeatherDisplay:10.37,2013-01-09 18:29:00,
2013-01-09 12:35:00,45.0,28.4,30.30,NW,315,9.2,14.5,52,0.00,CLR,FEW,0.00,WeatherDisplay:10.37,2013-01-09 18:35:00,
2013-01-09 12:40:00,45.1,29.9,30.30,West,270,3.8,6.0,55,0.00,CLR,FEW,0.00,WeatherDisplay:10.37,2013-01-09 18:40:00,
2013-01-09 12:41:00,45.1,29.9,30.29,NW,315,3.8,9.2,55,0.00,CLR,FEW,0.00,WeatherDisplay:10.37,2013-01-09 18:41:00,
2013-01-09 12:42:00,45.1,29.9,30.29,NW,315,3.8,9.2,55,0.00,CLR,FEW,0.00,WeatherDisplay:10.37,2013-01-09 18:42:00,
2013-01-09 12:44:00,45.1,29.9,30.30,North,0,3.1,9.2,55,0.00,CLR,FEW,0.00,WeatherDisplay:10.37,2013-01-09 18:44:00,
2013-01-09 12:46:00,45.1,29.9,30.30,SW,225,3.1,6.9,55,0.00,CLR,FEW,0.00,WeatherDisplay:10.37,2013-01-09 18:46:00,
2013-01-09 12:48:00,45.3,29.2,30.30,SW,225,3.1,8.1,53,0.00,CLR,FEW,0.00,WeatherDisplay:10.37,2013-01-09 18:48:00,
2013-01-09 12:49:00,45.3,29.2,30.30,SW,225,3.1,8.1,53,0.00,CLR,FEW,0.00,WeatherDisplay:10.37,2013-01-09 18:49:00,
2013-01-09 12:55:00,45.3,29.2,30.30,West,270,3.1,5.8,53,0.00,CLR,FEW,0.00,WeatherDisplay:10.37,2013-01-09 18:55:00,
2013-01-09 13:00:00,45.5,29.3,30.31,SW,225,3.1,6.9,53,0.00,CLR,FEW,0.00,WeatherDisplay:10.37,2013-01-09 19:00:00,
2013-01-09 13:06:00,45.7,30.4,30.30,NW,315,3.1,5.8,55,0.00,CLR,FEW,0.00,WeatherDisplay:10.37,2013-01-09 19:06:00,
2013-01-09 13:12:00,45.9,29.2,30.31,West,270,2.2,5.8,52,0.00,CLR,FEW,0.00,WeatherDisplay:10.37,2013-01-09 19:12:00,
2013-01-09 13:17:00,46.0,30.8,30.31,NW,315,2.2,6.0,55,0.00,CLR,FEW,0.00,WeatherDisplay:10.37,2013-01-09 19:17:00,
2013-01-09 13:19:00,46.0,28.4,30.32,NW,315,2.2,6.9,50,0.00,CLR,FEW,0.00,WeatherDisplay:10.37,2013-01-09 19:19:00,
2013-01-09 13:20:00,46.0,28.4,30.32,NW,315,2.2,6.9,50,0.00,CLR,FEW,0.00,WeatherDisplay:10.37,2013-01-09 19:20:00,
2013-01-09 13:25:00,46.0,30.8,30.32,West,270,3.1,6.9,55,0.00,CLR,FEW,0.00,WeatherDisplay:10.37,2013-01-09 19:25:00,
2013-01-09 13:32:00,46.0,28.4,30.32,NW,315,3.1,9.2,50,0.00,CLR,FEW,0.00,WeatherDisplay:10.37,2013-01-09 19:32:00,
2013-01-09 13:37:00,45.9,28.3,30.32,West,270,3.1,10.4,50,0.00,CLR,FEW,0.00,WeatherDisplay:10.37,2013-01-09 19:37:00,
2013-01-09 13:43:00,46.0,27.4,30.32,West,270,3.1,9.2,48,0.00,CLR,FEW,0.00,WeatherDisplay:10.37,2013-01-09 19:43:00,
2013-01-09 13:48:00,46.0,26.9,30.32,NW,315,3.8,11.5,47,0.00,CLR,FEW,0.00,WeatherDisplay:10.37,2013-01-09 19:48:00,
2013-01-09 13:54:00,45.9,30.6,30.32,NW,315,3.8,9.2,55,0.00,CLR,FEW,0.00,WeatherDisplay:10.37,2013-01-09 19:54:00,
2013-01-09 14:00:00,45.5,27.4,30.32,NW,315,5.4,9.2,49,0.00,CLR,FEW,0.00,WeatherDisplay:10.37,2013-01-09 20:00:00,
2013-01-09 14:05:00,45.5,30.3,30.32,NW,315,4.5,9.2,55,0.00,CLR,FEW,0.00,WeatherDisplay:10.37,2013-01-09 20:05:00,
2013-01-09 14:11:00,45.0,27.4,30.32,NW,315,4.5,12.7,50,0.00,CLR,FEW,0.00,WeatherDisplay:10.37,2013-01-09 20:11:00,
2013-01-09 14:16:00,45.5,30.3,30.33,WSW,248,2.2,4.6,55,0.00,CLR,FEW,0.00,WeatherDisplay:10.37,2013-01-09 20:16:00,
2013-01-09 14:22:00,46.0,30.8,30.33,NW,315,3.8,5.8,55,0.00,CLR,FEW,0.00,WeatherDisplay:10.37,2013-01-09 20:22:00,
2013-01-09 14:28:00,46.0,30.8,30.33,NW,315,3.8,9.2,55,0.00,CLR,FEW,0.00,WeatherDisplay:10.37,2013-01-09 20:28:00,
2013-01-09 14:33:00,45.9,27.3,30.34,NW,315,3.8,8.1,48,0.00,CLR,FEW,0.00,WeatherDisplay:10.37,2013-01-09 20:33:00,
2013-01-09 14:39:00,45.5,27.4,30.34,West,270,2.2,9.2,49,0.00,CLR,FEW,0.00,WeatherDisplay:10.37,2013-01-09 20:39:00,
2013-01-09 14:44:00,45.3,30.1,30.34,NW,315,3.1,8.1,55,0.00,CLR,FEW,0.00,WeatherDisplay:10.37,2013-01-09 20:44:00,
2013-01-09 14:50:00,45.0,29.8,30.34,WNW,292,4.5,10.7,55,0.00,CLR,FEW,0.00,WeatherDisplay:10.37,2013-01-09 20:50:00,
2013-01-09 14:56:00,44.8,25.8,30.34,NW,315,2.2,8.1,47,0.00,CLR,FEW,0.00,WeatherDisplay:10.37,2013-01-09 20:56:00,
2013-01-09 15:01:00,44.6,26.6,30.34,NW,315,3.8,10.4,49,0.00,CLR,FEW,0.00,WeatherDisplay:10.37,2013-01-09 21:01:00,
2013-01-09 15:07:00,45.3,27.3,30.34,West,270,2.2,4.6,49,0.00,CLR,FEW,0.00,WeatherDisplay:10.37,2013-01-09 21:07:00,
2013-01-09 15:12:00,45.0,23.8,30.34,NW,315,4.5,6.9,43,0.00,CLR,FEW,0.00,WeatherDisplay:10.37,2013-01-09 21:12:00,
2013-01-09 15:18:00,44.6,26.6,30.34,SW,225,3.8,10.4,49,0.00,CLR,FEW,0.00,WeatherDisplay:10.37,2013-01-09 21:18:00,
2013-01-09 15:24:00,44.1,23.5,30.34,NW,315,4.5,10.4,44,0.00,CLR,FEW,0.00,WeatherDisplay:10.37,2013-01-09 21:24:00,
2013-01-09 15:29:00,44.1,26.1,30.35,NW,315,3.1,5.8,49,0.00,CLR,FEW,0.00,WeatherDisplay:10.37,2013-01-09 21:29:00,
2013-01-09 15:35:00,44.1,23.5,30.35,SW,225,2.2,5.8,44,0.00,CLR,FEW,0.00,WeatherDisplay:10.37,2013-01-09 21:35:00,
2013-01-09 15:40:00,43.7,25.8,30.36,North,0,3.8,8.1,49,0.00,CLR,FEW,0.00,WeatherDisplay:10.37,2013-01-09 21:40:00,
2013-01-09 15:46:00,43.5,25.6,30.36,West,270,0.7,8.1,49,0.00,CLR,FEW,0.00,WeatherDisplay:10.37,2013-01-09 21:46:00,
2013-01-09 15:52:00,43.2,24.3,30.36,West,270,3.1,8.1,47,0.00,CLR,FEW,0.00,WeatherDisplay:10.37,2013-01-09 21:52:00,
2013-01-09 15:57:00,42.8,24.9,30.36,NW,315,3.1,5.8,49,0.00,CLR,FEW,0.00,WeatherDisplay:10.37,2013-01-09 21:57:00,
2013-01-09 16:03:00,42.3,28.1,30.36,North,0,3.1,5.8,57,0.00,CLR,FEW,0.00,WeatherDisplay:10.37,2013-01-09 22:03:00,
2013-01-09 16:08:00,41.7,27.6,30.36,North,0,1.6,9.2,57,0.00,CLR,FEW,0.00,WeatherDisplay:10.37,2013-01-09 22:08:00,
2013-01-09 16:14:00,41.5,24.7,30.37,NW,315,2.2,5.8,51,0.00,CLR,FEW,0.00,WeatherDisplay:10.37,2013-01-09 22:14:00,
2013-01-09 16:20:00,41.2,24.9,30.36,NW,315,2.2,5.8,52,0.00,CLR,FEW,0.00,WeatherDisplay:10.37,2013-01-09 22:20:00,
2013-01-09 16:25:00,40.8,25.0,30.37,NW,315,1.6,8.1,53,0.00,CLR,FEW,0.00,WeatherDisplay:10.37,2013-01-09 22:25:00,
2013-01-09 16:31:00,40.5,26.4,30.36,NW,315,3.1,5.8,57,0.00,CLR,FEW,0.00,WeatherDisplay:10.37,2013-01-09 22:31:00,
2013-01-09 16:36:00,40.3,26.2,30.36,NW,315,2.2,5.8,57,0.00,CLR,FEW,0.00,WeatherDisplay:10.37,2013-01-09 22:36:00,
2013-01-09 16:42:00,39.9,25.9,30.35,NW,315,0.7,3.5,57,0.00,CLR,FEW,0.00,WeatherDisplay:10.37,2013-01-09 22:42:00,
2013-01-09 16:48:00,39.6,25.6,30.36,NW,315,3.1,4.6,57,0.00,CLR,FEW,0.00,WeatherDisplay:10.37,2013-01-09 22:48:00,
2013-01-09 16:53:00,39.4,25.4,30.36,NW,315,0.7,3.5,57,0.00,CLR,FEW,0.00,WeatherDisplay:10.37,2013-01-09 22:53:00,
2013-01-09 16:59:00,39.0,25.9,30.35,North,0,1.6,5.8,59,0.00,CLR,FEW,0.00,WeatherDisplay:10.37,2013-01-09 22:59:00,
2013-01-09 17:04:00,38.8,27.3,30.35,NW,315,1.6,3.8,63,0.00,CLR,FEW,0.00,WeatherDisplay:10.37,2013-01-09 23:04:00,
2013-01-09 17:10:00,38.5,27.0,30.36,North,0,2.2,4.6,63,0.00,CLR,FEW,0.00,WeatherDisplay:10.37,2013-01-09 23:10:00,
2013-01-09 17:16:00,38.3,26.0,30.36,NW,315,0.7,3.5,61,0.00,CLR,FEW,0.00,WeatherDisplay:10.37,2013-01-09 23:16:00,
2013-01-09 17:21:00,38.1,26.6,30.36,West,270,0.0,2.3,63,0.00,CLR,FEW,0.00,WeatherDisplay:10.37,2013-01-09 23:21:00,
2013-01-09 17:27:00,37.9,26.5,30.36,NW,315,0.0,1.1,63,0.00,CLR,FEW,0.00,WeatherDisplay:10.37,2013-01-09 23:27:00,
2013-01-09 17:32:00,37.4,25.9,30.36,NW,315,0.7,2.2,63,0.00,CLR,FEW,0.00,WeatherDisplay:10.37,2013-01-09 23:32:00,
2013-01-09 17:38:00,37.2,25.8,30.36,NW,315,0.7,2.3,63,0.00,CLR,FEW,0.00,WeatherDisplay:10.37,2013-01-09 23:38:00,
2013-01-09 17:44:00,37.0,26.0,30.36,North,0,0.0,1.6,64,0.00,CLR,FEW,0.00,WeatherDisplay:10.37,2013-01-09 23:44:00,
2013-01-09 17:49:00,36.9,25.8,30.35,North,0,0.0,1.6,64,0.00,CLR,FEW,0.00,WeatherDisplay:10.37,2013-01-09 23:49:00,
2013-01-09 17:55:00,36.5,25.8,30.36,SW,225,0.0,1.1,65,0.00,CLR,FEW,0.00,WeatherDisplay:10.37,2013-01-09 23:55:00,
2013-01-09 18:00:00,36.1,24.7,30.36,SW,225,0.0,0.0,63,0.00,CLR,FEW,0.00,WeatherDisplay:10.37,2013-01-10 00:00:00,
2013-01-09 18:06:00,35.6,26.4,30.37,North,0,0.0,0.0,69,0.00,CLR,FEW,0.00,WeatherDisplay:10.37,2013-01-10 00:06:00,
2013-01-09 18:12:00,35.2,26.1,30.37,West,270,0.0,0.0,69,0.00,CLR,FEW,0.00,WeatherDisplay:10.37,2013-01-10 00:12:00,
2013-01-09 18:17:00,34.7,25.6,30.37,West,270,0.0,0.0,69,0.00,CLR,FEW,0.00,WeatherDisplay:10.37,2013-01-10 00:17:00,
2013-01-09 18:23:00,34.2,24.7,30.37,East,90,0.0,0.0,68,0.00,CLR,FEW,0.00,WeatherDisplay:10.37,2013-01-10 00:23:00,
2013-01-09 18:28:00,34.0,24.9,30.38,South,180,0.7,1.6,69,0.00,CLR,FEW,0.00,WeatherDisplay:10.37,2013-01-10 00:28:00,
2013-01-09 18:34:00,33.8,24.7,30.38,South,180,0.7,1.1,69,0.00,CLR,FEW,0.00,WeatherDisplay:10.37,2013-01-10 00:34:00,
2013-01-09 18:40:00,33.3,25.2,30.38,NE,45,0.0,0.0,72,0.00,CLR,FEW,0.00,WeatherDisplay:10.37,2013-01-10 00:40:00,
2013-01-09 18:45:00,33.1,24.0,30.38,NE,45,0.0,0.0,69,0.00,CLR,FEW,0.00,WeatherDisplay:10.37,2013-01-10 00:45:00,
2013-01-09 18:51:00,32.9,25.5,30.39,SE,135,0.0,0.0,74,0.00,CLR,FEW,0.00,WeatherDisplay:10.37,2013-01-10 00:51:00,
2013-01-09 18:56:00,32.5,25.2,30.39,SE,135,0.0,0.0,74,0.00,CLR,FEW,0.00,WeatherDisplay:10.37,2013-01-10 00:56:00,
2013-01-09 19:02:00,32.4,22.3,30.39,SE,135,0.0,0.0,66,0.00,CLR,FEW,0.00,WeatherDisplay:10.37,2013-01-10 01:02:00,
2013-01-09 19:08:00,32.2,22.1,30.39,SE,135,0.0,0.0,66,0.00,CLR,FEW,0.00,WeatherDisplay:10.37,2013-01-10 01:08:00,
2013-01-09 19:13:00,32.0,21.9,30.39,SE,135,0.0,0.0,66,0.00,CLR,FEW,0.00,WeatherDisplay:10.37,2013-01-10 01:13:00,
2013-01-09 19:19:00,31.8,24.8,30.40,SE,135,0.0,0.0,75,0.00,CLR,FEW,0.00,WeatherDisplay:10.37,2013-01-10 01:19:00,
2013-01-09 19:24:00,31.8,25.1,30.40,NW,315,0.0,0.0,76,0.00,CLR,FEW,0.00,WeatherDisplay:10.37,2013-01-10 01:24:00,
2013-01-09 19:30:00,31.6,21.6,30.39,SW,225,0.0,0.0,66,0.00,CLR,FEW,0.00,WeatherDisplay:10.37,2013-01-10 01:30:00,
2013-01-09 19:36:00,31.6,21.6,30.40,SW,225,0.0,0.0,66,0.00,CLR,FEW,0.00,WeatherDisplay:10.37,2013-01-10 01:36:00,
2013-01-09 19:41:00,31.1,21.1,30.40,North,0,0.0,0.0,66,0.00,CLR,FEW,0.00,WeatherDisplay:10.37,2013-01-10 01:41:00,
2013-01-09 19:47:00,31.5,26.0,30.40,South,180,0.0,0.0,80,0.00,CLR,FEW,0.00,WeatherDisplay:10.37,2013-01-10 01:47:00,
2013-01-09 19:52:00,31.5,21.4,30.40,South,180,0.0,0.0,66,0.00,CLR,FEW,0.00,WeatherDisplay:10.37,2013-01-10 01:52:00,
2013-01-09 19:58:00,31.3,21.2,30.40,South,180,0.0,0.0,66,0.00,CLR,FEW,0.00,WeatherDisplay:10.37,2013-01-10 01:58:00,
2013-01-09 20:04:00,31.3,25.8,30.40,East,90,0.0,0.0,80,0.00,CLR,FEW,0.00,WeatherDisplay:10.37,2013-01-10 02:04:00,
2013-01-09 20:09:00,30.9,25.5,30.40,East,90,0.0,0.0,80,0.00,CLR,FEW,0.00,WeatherDisplay:10.37,2013-01-10 02:09:00,
2013-01-09 20:15:00,30.4,24.9,30.40,East,90,0.0,0.0,80,0.00,CLR,FEW,0.00,WeatherDisplay:10.37,2013-01-10 02:15:00,
2013-01-09 20:20:00,30.0,24.6,30.40,East,90,0.0,0.0,80,0.00,CLR,FEW,0.00,WeatherDisplay:10.37,2013-01-10 02:20:00,
2013-01-09 20:26:00,30.2,21.2,30.40,North,0,0.0,0.0,69,0.00,CLR,FEW,0.00,WeatherDisplay:10.37,2013-01-10 02:26:00,
2013-01-09 20:32:00,30.4,21.4,30.40,North,0,0.0,0.0,69,0.00,CLR,FEW,0.00,WeatherDisplay:10.37,2013-01-10 02:32:00,
2013-01-09 20:37:00,30.4,21.4,30.40,South,180,0.0,0.0,69,0.00,CLR,FEW,0.00,WeatherDisplay:10.37,2013-01-10 02:37:00,
2013-01-09 20:43:00,30.2,25.4,30.39,West,270,0.0,0.0,82,0.00,CLR,FEW,0.00,WeatherDisplay:10.37,2013-01-10 02:43:00,
2013-01-09 20:48:00,30.0,25.2,30.40,NE,45,0.0,0.0,82,0.00,CLR,FEW,0.00,WeatherDisplay:10.37,2013-01-10 02:48:00,
2013-01-09 20:54:00,30.0,21.1,30.40,NE,45,0.0,0.0,69,0.00,CLR,FEW,0.00,WeatherDisplay:10.37,2013-01-10 02:54:00,
2013-01-09 21:00:00,30.0,21.1,30.40,NE,45,0.0,0.0,69,0.00,CLR,FEW,0.00,WeatherDisplay:10.37,2013-01-10 03:00:00,
2013-01-09 21:05:00,29.7,19.7,30.40,NE,45,0.0,0.0,66,0.00,CLR,FEW,0.00,WeatherDisplay:10.37,2013-01-10 03:05:00,
2013-01-09 21:11:00,29.7,24.8,30.40,NE,45,0.0,0.0,82,0.00,CLR,FEW,0.00,WeatherDisplay:10.37,2013-01-10 03:11:00,
2013-01-09 21:16:00,29.7,25.1,30.40,South,180,0.0,0.0,83,0.00,CLR,FEW,0.00,WeatherDisplay:10.37,2013-01-10 03:16:00,
2013-01-09 21:22:00,29.8,25.3,30.40,East,90,0.0,0.0,83,0.00,CLR,FEW,0.00,WeatherDisplay:10.37,2013-01-10 03:22:00,
2013-01-09 21:28:00,29.7,19.7,30.40,East,90,0.0,0.0,66,0.00,CLR,FEW,0.00,WeatherDisplay:10.37,2013-01-10 03:28:00,
2013-01-09 21:33:00,29.7,19.7,30.40,East,90,0.0,0.0,66,0.00,CLR,FEW,0.00,WeatherDisplay:10.37,2013-01-10 03:33:00,
2013-01-09 21:39:00,29.7,25.4,30.40,SE,135,0.0,0.0,84,0.00,CLR,FEW,0.00,WeatherDisplay:10.37,2013-01-10 03:39:00,
2013-01-09 21:44:00,29.5,19.5,30.40,NE,45,0.0,0.0,66,0.00,CLR,FEW,0.00,WeatherDisplay:10.37,2013-01-10 03:44:00,
2013-01-09 21:50:00,29.3,19.3,30.40,SW,225,0.0,0.0,66,0.00,CLR,FEW,0.00,WeatherDisplay:10.37,2013-01-10 03:50:00,
2013-01-09 21:56:00,28.9,24.7,30.40,SW,225,0.0,0.0,84,0.00,CLR,FEW,0.00,WeatherDisplay:10.37,2013-01-10 03:56:00,
2013-01-09 22:01:00,28.9,24.7,30.40,North,0,0.0,0.0,84,0.00,CLR,FEW,0.00,WeatherDisplay:10.37,2013-01-10 04:01:00,
2013-01-09 22:07:00,29.1,24.9,30.40,North,0,0.0,0.0,84,0.00,CLR,FEW,0.00,WeatherDisplay:10.37,2013-01-10 04:07:00,
2013-01-09 22:12:00,28.9,24.7,30.41,North,0,0.0,0.0,84,0.00,CLR,FEW,0.00,WeatherDisplay:10.37,2013-01-10 04:12:00,
2013-01-09 22:18:00,28.8,19.9,30.40,North,0,0.0,0.0,69,0.00,CLR,FEW,0.00,WeatherDisplay:10.37,2013-01-10 04:18:00,
2013-01-09 22:24:00,28.9,20.0,30.40,West,270,0.0,0.0,69,0.00,CLR,FEW,0.00,WeatherDisplay:10.37,2013-01-10 04:24:00,
2013-01-09 22:29:00,28.9,24.7,30.41,NE,45,0.0,0.0,84,0.00,CLR,FEW,0.00,WeatherDisplay:10.37,2013-01-10 04:29:00,
2013-01-09 22:35:00,28.6,19.7,30.41,NE,45,0.0,0.0,69,0.00,CLR,FEW,0.00,WeatherDisplay:10.37,2013-01-10 04:35:00,
2013-01-09 22:40:00,28.6,19.7,30.41,South,180,0.0,0.0,69,0.00,CLR,FEW,0.00,WeatherDisplay:10.37,2013-01-10 04:40:00,
2013-01-09 22:46:00,28.4,19.5,30.41,North,0,0.0,0.0,69,0.00,CLR,FEW,0.00,WeatherDisplay:10.37,2013-01-10 04:46:00,
2013-01-09 22:52:00,28.4,24.2,30.42,East,90,0.0,0.0,84,0.00,CLR,FEW,0.00,WeatherDisplay:10.37,2013-01-10 04:52:00,
2013-01-09 22:57:00,28.6,19.7,30.42,East,90,0.0,0.0,69,0.00,CLR,FEW,0.00,WeatherDisplay:10.37,2013-01-10 04:57:00,
2013-01-09 23:02:00,28.4,19.5,30.42,East,90,0.0,0.0,69,0.00,CLR,FEW,0.00,WeatherDisplay:10.37,2013-01-10 05:02:00,
2013-01-09 23:03:00,28.4,19.5,30.42,East,90,0.0,0.0,69,0.00,CLR,FEW,0.00,WeatherDisplay:10.37,2013-01-10 05:03:00,
2013-01-09 23:04:00,28.4,19.5,30.42,East,90,0.0,0.0,69,0.00,CLR,FEW,0.00,WeatherDisplay:10.37,2013-01-10 05:04:00,
2013-01-09 23:06:00,28.4,19.5,30.42,East,90,0.0,0.0,69,0.00,CLR,FEW,0.00,WeatherDisplay:10.37,2013-01-10 05:06:00,
2013-01-09 23:12:00,28.4,24.2,30.42,East,90,0.0,0.0,84,0.00,CLR,FEW,0.00,WeatherDisplay:10.37,2013-01-10 05:12:00,
2013-01-09 23:17:00,28.4,19.5,30.42,East,90,0.0,0.0,69,0.00,CLR,FEW,0.00,WeatherDisplay:10.37,2013-01-10 05:17:00,
2013-01-09 23:23:00,28.4,24.2,30.42,East,90,0.0,0.0,84,0.00,CLR,FEW,0.00,WeatherDisplay:10.37,2013-01-10 05:23:00,
2013-01-09 23:28:00,28.0,23.8,30.42,East,90,0.0,0.0,84,0.00,CLR,FEW,0.00,WeatherDisplay:10.37,2013-01-10 05:28:00,
2013-01-09 23:34:00,28.0,23.8,30.42,North,0,0.0,0.0,84,0.00,CLR,FEW,0.00,WeatherDisplay:10.37,2013-01-10 05:34:00,
2013-01-09 23:40:00,28.0,19.2,30.42,East,90,0.0,0.0,69,0.00,CLR,FEW,0.00,WeatherDisplay:10.37,2013-01-10 05:40:00,
2013-01-09 23:45:00,28.0,23.8,30.42,North,0,0.0,0.0,84,0.00,CLR,FEW,0.00,WeatherDisplay:10.37,2013-01-10 05:45:00,
2013-01-09 23:51:00,28.0,23.8,30.42,North,0,0.0,0.0,84,0.00,CLR,FEW,0.00,WeatherDisplay:10.37,2013-01-10 05:51:00,
2013-01-09 23:56:00,27.7,23.5,30.42,West,270,0.0,0.0,84,0.00,CLR,FEW,0.00,WeatherDisplay:10.37,2013-01-10 05:56:00,